Time;durP1;ratioP1;P1;durP2;ratioP2;P2;SDS_P1;SDS_P2;PMS_P1;PMS_P2;Temp;Humidity;BMP_temperature;BMP_pressure;BME280_temperature;BME280_humidity;BME280_pressure;Samples;Min_cycle;Max_cycle;Signal;HPM_P1;HPM_P2
2023/01/14 00:01:14;;;;;;;7.37;1.20;;;6.30;99.90;;;;;;4193756;28;20462;-78
2023/01/14 00:03:16;;;;;;;5.20;0.87;;;6.20;99.90;;;;;;4193631;28;20497;-78
2023/01/14 00:05:18;;;;;;;3.10;0.87;;;6.30;99.90;;;;;;4193963;28;20471;-78
2023/01/14 00:07:20;;;;;;;2.77;1.23;;;6.30;99.90;;;;;;4189429;28;20449;-78
2023/01/14 00:09:26;;;;;;;2.33;0.90;;;6.30;99.90;;;;;;4191654;28;20451;-78
2023/01/14 00:13:44;;;;;;;5.57;0.93;;;6.30;99.90;;;;;;4188140;28;20475;-77
2023/01/14 00:15:52;;;;;;;3.70;1.00;;;6.30;99.90;;;;;;4189302;28;20455;-77
2023/01/14 00:17:54;;;;;;;3.53;0.90;;;6.30;99.90;;;;;;4206924;28;20557;-77
2023/01/14 00:19:56;;;;;;;4.57;1.20;;;6.30;99.90;;;;;;4191119;28;20452;-77
2023/01/14 00:21:57;;;;;;;3.57;1.20;;;6.30;99.90;;;;;;4208403;28;20486;-77
2023/01/14 00:23:59;;;;;;;3.33;0.93;;;6.30;99.90;;;;;;4188174;28;20944;-77
2023/01/14 00:26:06;;;;;;;2.80;0.90;;;6.40;99.90;;;;;;4194222;28;20462;-77
2023/01/14 00:28:07;;;;;;;2.77;1.00;;;6.40;99.90;;;;;;4189040;28;21109;-77
2023/01/14 00:30:11;;;;;;;3.23;1.20;;;6.40;99.90;;;;;;4193902;28;20447;-77
2023/01/14 00:32:13;;;;;;;3.67;1.17;;;6.40;99.90;;;;;;4192087;28;21061;-77
2023/01/14 00:34:16;;;;;;;6.47;1.20;;;6.50;99.90;;;;;;4192358;28;20486;-77
2023/01/14 00:36:20;;;;;;;5.23;1.30;;;6.50;99.90;;;;;;4191885;28;20582;-77
2023/01/14 00:38:24;;;;;;;7.30;1.00;;;6.50;99.90;;;;;;4193615;28;20522;-77
2023/01/14 00:40:26;;;;;;;8.37;1.03;;;6.50;99.90;;;;;;4192076;28;20566;-77
2023/01/14 00:42:32;;;;;;;3.47;0.87;;;6.50;99.90;;;;;;4207542;28;20684;-77
2023/01/14 00:44:34;;;;;;;4.03;1.30;;;6.50;99.90;;;;;;4194747;28;20563;-77
2023/01/14 00:46:38;;;;;;;5.07;1.00;;;6.60;99.90;;;;;;4193496;28;20447;-77
2023/01/14 00:48:42;;;;;;;4.23;1.47;;;6.60;99.90;;;;;;4190792;28;20948;-77
2023/01/14 00:50:44;;;;;;;8.80;1.40;;;6.60;99.90;;;;;;4192181;28;20961;-77
2023/01/14 00:52:46;;;;;;;6.00;1.00;;;6.60;99.90;;;;;;4195134;28;20524;-76
2023/01/14 00:54:48;;;;;;;4.00;1.03;;;6.60;99.90;;;;;;4196853;28;20964;-77
2023/01/14 00:56:50;;;;;;;3.30;0.90;;;6.60;99.90;;;;;;4211591;28;20504;-77
2023/01/14 00:58:53;;;;;;;3.63;0.87;;;6.60;99.90;;;;;;4196911;28;20490;-77
2023/01/14 01:00:56;;;;;;;6.73;1.30;;;6.60;99.90;;;;;;4193963;28;20492;-76
2023/01/14 01:02:58;;;;;;;6.23;1.20;;;6.60;99.90;;;;;;4193993;28;20599;-77
2023/01/14 01:05:00;;;;;;;4.37;1.20;;;6.60;99.90;;;;;;4195124;28;20826;-77
2023/01/14 01:07:02;;;;;;;3.93;1.27;;;6.60;99.90;;;;;;4194301;28;20946;-77
2023/01/14 01:09:05;;;;;;;6.87;1.20;;;6.60;99.90;;;;;;4191141;28;20447;-78
2023/01/14 01:11:07;;;;;;;6.80;1.70;;;6.60;99.90;;;;;;4196160;28;20461;-77
2023/01/14 01:13:09;;;;;;;5.33;1.10;;;6.60;99.90;;;;;;4193845;28;20836;-77
2023/01/14 01:15:13;;;;;;;6.13;1.50;;;6.70;99.90;;;;;;4197366;28;20457;-77
2023/01/14 01:17:15;;;;;;;7.87;1.27;;;6.60;99.90;;;;;;4185248;28;20920;-77
2023/01/14 01:19:17;;;;;;;7.07;1.00;;;6.60;99.90;;;;;;4196599;28;20866;-77
2023/01/14 01:21:22;;;;;;;5.57;1.57;;;6.60;99.90;;;;;;4194477;28;20451;-77
2023/01/14 01:23:24;;;;;;;6.00;1.00;;;6.60;99.90;;;;;;4189080;28;20473;-77
2023/01/14 01:25:29;;;;;;;5.00;1.07;;;6.60;99.90;;;;;;4196197;28;20479;-78
2023/01/14 01:27:31;;;;;;;7.90;1.10;;;6.80;99.90;;;;;;4211495;28;20500;-78
2023/01/14 01:29:33;;;;;;;4.87;0.90;;;6.60;99.90;;;;;;4196822;28;20489;-78
2023/01/14 01:31:36;;;;;;;3.57;1.00;;;6.60;99.90;;;;;;4195840;28;20482;-78
2023/01/14 01:33:39;;;;;;;7.33;1.40;;;6.60;99.90;;;;;;4197171;28;20839;-78
2023/01/14 01:35:41;;;;;;;6.17;0.93;;;6.60;99.90;;;;;;4193789;28;20491;-78
2023/01/14 01:37:43;;;;;;;4.40;1.33;;;6.60;99.90;;;;;;4195347;28;20482;-77
2023/01/14 01:39:46;;;;;;;7.67;1.27;;;6.60;99.90;;;;;;4196876;28;20459;-77
2023/01/14 01:41:48;;;;;;;4.33;1.77;;;6.50;99.90;;;;;;4201024;28;20526;-78
2023/01/14 01:44:07;;;;;;;7.40;1.20;;;6.50;99.90;;;;;;4204464;28;20462;-78
2023/01/14 01:46:09;;;;;;;3.00;1.17;;;6.50;99.90;;;;;;4201043;28;20475;-77
2023/01/14 01:48:16;;;;;;;6.33;1.27;;;6.60;99.90;;;;;;4194668;28;20465;-77
2023/01/14 01:50:18;;;;;;;8.03;1.13;;;6.50;99.90;;;;;;4195695;28;20508;-77
2023/01/14 01:52:23;;;;;;;5.97;1.10;;;6.50;99.90;;;;;;4195455;28;20494;-78
2023/01/14 01:54:28;;;;;;;6.77;1.33;;;6.50;99.90;;;;;;4184848;28;21515;-78
2023/01/14 01:56:34;;;;;;;5.20;0.90;;;6.50;99.90;;;;;;4194762;28;20520;-78
2023/01/14 01:58:37;;;;;;;6.37;1.10;;;6.50;99.90;;;;;;4194381;28;20545;-78
2023/01/14 02:00:39;;;;;;;7.60;1.67;;;6.50;99.90;;;;;;4199429;28;20493;-77
2023/01/14 02:02:41;;;;;;;8.03;1.10;;;6.50;99.90;;;;;;4203022;28;20490;-77
2023/01/14 02:04:45;;;;;;;6.80;1.23;;;6.50;99.90;;;;;;4195829;28;20471;-77
2023/01/14 02:06:47;;;;;;;7.03;1.10;;;6.50;99.90;;;;;;4200860;28;20890;-77
2023/01/14 02:08:51;;;;;;;5.00;1.30;;;6.50;99.90;;;;;;4201218;28;20831;-77
2023/01/14 02:11:20;;;;;;;5.90;1.20;;;6.50;99.90;;;;;;4200696;28;20542;-78
2023/01/14 02:13:34;;;;;;;5.67;1.10;;;6.40;99.90;;;;;;4195892;28;21240;-77
2023/01/14 02:15:58;;;;;;;5.73;0.90;;;6.40;99.90;;;;;;4201136;28;20884;-77
2023/01/14 02:18:09;;;;;;;3.43;0.93;;;6.40;99.90;;;;;;4205592;28;20470;-78
2023/01/14 02:20:22;;;;;;;5.33;1.10;;;6.50;99.90;;;;;;4205792;28;20544;-77
2023/01/14 02:22:38;;;;;;;8.50;1.37;;;6.50;99.90;;;;;;4202293;28;20532;-78
2023/01/14 02:25:07;;;;;;;6.93;1.30;;;6.50;99.90;;;;;;4207248;28;20472;-77
2023/01/14 02:27:37;;;;;;;7.30;1.43;;;6.50;99.90;;;;;;4199899;28;20495;-77
2023/01/14 02:30:18;;;;;;;5.20;1.17;;;6.50;99.90;;;;;;4198422;28;20462;-78
2023/01/14 02:32:30;;;;;;;9.03;1.10;;;6.30;99.90;;;;;;4162813;28;20597;-78
2023/01/14 02:34:38;;;;;;;4.57;0.80;;;6.60;99.90;;;;;;4194860;28;20548;-78
2023/01/14 02:36:48;;;;;;;6.17;1.23;;;6.60;99.90;;;;;;4193316;28;20458;-78
2023/01/14 02:39:01;;;;;;;5.90;2.20;;;6.60;99.90;;;;;;4193896;28;20461;-78
2023/01/14 02:41:12;;;;;;;6.90;1.13;;;6.60;99.90;;;;;;4194209;28;20513;-77
2023/01/14 02:45:47;;;;;;;8.20;1.10;;;6.60;99.90;;;;;;4194988;28;20455;-78
2023/01/14 02:47:51;;;;;;;5.50;1.17;;;6.70;99.90;;;;;;4191437;28;20498;-78
2023/01/14 02:49:55;;;;;;;2.27;0.73;;;6.70;99.90;;;;;;4195693;28;20471;-78
2023/01/14 02:52:00;;;;;;;5.60;1.00;;;6.70;99.90;;;;;;4194441;28;21028;-78
2023/01/14 02:54:02;;;;;;;6.70;1.40;;;6.70;99.90;;;;;;4195501;28;20502;-78
2023/01/14 02:56:05;;;;;;;9.20;1.47;;;6.70;99.90;;;;;;4191998;28;20497;-78
2023/01/14 02:58:27;;;;;;;3.37;0.80;;;6.70;99.90;;;;;;4193221;28;20936;-78
2023/01/14 03:00:36;;;;;;;4.63;0.93;;;6.70;99.90;;;;;;4192204;28;20498;-78
2023/01/14 03:02:54;;;;;;;5.97;1.23;;;6.70;99.90;;;;;;4192343;28;20475;-78
2023/01/14 03:05:14;;;;;;;5.10;1.23;;;6.70;99.90;;;;;;4205545;28;20462;-78
2023/01/14 03:07:23;;;;;;;7.40;1.37;;;6.70;99.90;;;;;;4194207;28;20479;-78
2023/01/14 03:09:34;;;;;;;5.07;1.50;;;6.80;99.90;;;;;;4193162;28;20487;-78
2023/01/14 03:11:43;;;;;;;5.67;1.17;;;6.80;99.90;;;;;;4192722;28;20478;-78
2023/01/14 03:13:51;;;;;;;7.47;1.20;;;6.70;99.90;;;;;;4193584;28;20490;-78
2023/01/14 03:15:57;;;;;;;4.93;1.30;;;6.70;99.90;;;;;;4193894;28;20536;-78
2023/01/14 03:18:05;;;;;;;4.07;1.13;;;6.70;99.90;;;;;;4189891;28;20557;-78
2023/01/14 03:20:13;;;;;;;8.03;1.10;;;6.70;99.90;;;;;;4193747;28;20924;-78
2023/01/14 03:22:15;;;;;;;4.03;0.90;;;6.70;99.90;;;;;;4209729;28;20497;-78
2023/01/14 03:24:23;;;;;;;6.73;1.47;;;6.70;99.90;;;;;;4208541;28;20541;-78
2023/01/14 03:26:28;;;;;;;5.27;1.00;;;6.70;99.90;;;;;;4192192;28;20450;-78
2023/01/14 03:28:35;;;;;;;4.13;0.93;;;6.70;99.90;;;;;;4193627;28;20553;-78
2023/01/14 03:30:40;;;;;;;9.83;1.20;;;6.70;99.90;;;;;;4195722;28;20538;-78
2023/01/14 03:32:46;;;;;;;5.40;1.00;;;6.70;99.90;;;;;;4192879;28;20491;-78
2023/01/14 03:34:57;;;;;;;4.57;1.03;;;6.70;99.90;;;;;;4193211;28;20452;-78
2023/01/14 03:37:01;;;;;;;6.93;1.87;;;6.70;99.90;;;;;;4192765;28;20455;-76
2023/01/14 03:39:09;;;;;;;6.53;1.27;;;6.70;99.90;;;;;;4193732;28;20455;-77
2023/01/14 03:42:17;;;;;;;4.00;1.23;;;6.70;99.90;;;;;;4193099;28;20494;-76
2023/01/14 03:43:47;;;;;;;6.27;1.40;;;6.70;99.90;;;;;;4193390;28;20467;-77
2023/01/14 03:45:50;;;;;;;4.90;1.03;;;6.70;99.90;;;;;;4193577;28;20463;-77
2023/01/14 03:47:52;;;;;;;5.37;1.10;;;6.70;99.90;;;;;;4187070;28;20487;-76
2023/01/14 03:49:57;;;;;;;2.03;0.87;;;6.60;99.90;;;;;;4189101;28;20479;-77
2023/01/14 03:52:05;;;;;;;4.27;1.17;;;6.60;99.90;;;;;;4191205;28;20510;-77
2023/01/14 03:54:18;;;;;;;5.93;1.20;;;6.60;99.90;;;;;;4192567;28;20454;-77
2023/01/14 03:56:25;;;;;;;6.60;0.97;;;6.70;99.90;;;;;;4190408;28;20500;-77
2023/01/14 03:58:40;;;;;;;8.93;1.60;;;6.60;99.90;;;;;;4192409;28;20543;-77
2023/01/14 04:00:47;;;;;;;6.60;1.10;;;6.60;99.90;;;;;;4193792;28;20590;-77
2023/01/14 04:02:50;;;;;;;7.77;1.17;;;6.70;99.90;;;;;;4205097;28;20485;-77
2023/01/14 04:04:55;;;;;;;8.87;1.43;;;6.70;99.90;;;;;;4192427;28;20797;-77
2023/01/14 04:06:57;;;;;;;7.73;1.00;;;6.70;99.90;;;;;;4191447;28;21047;-77
2023/01/14 04:08:59;;;;;;;7.20;1.10;;;6.70;99.90;;;;;;4193288;28;20986;-77
2023/01/14 04:11:01;;;;;;;5.93;1.17;;;6.70;99.90;;;;;;4193619;28;20460;-77
2023/01/14 04:15:21;;;;;;;4.27;1.13;;;6.70;99.90;;;;;;4189719;28;20521;-77
2023/01/14 04:17:23;;;;;;;3.83;1.00;;;6.80;99.90;;;;;;4193375;28;20443;-77
2023/01/14 04:19:25;;;;;;;4.60;1.30;;;6.70;99.90;;;;;;4193619;28;20253;-77
2023/01/14 04:21:28;;;;;;;6.27;1.00;;;6.70;99.90;;;;;;4193632;28;20587;-77
2023/01/14 04:23:30;;;;;;;4.93;1.10;;;6.70;99.90;;;;;;4193198;28;20922;-77
2023/01/14 04:25:32;;;;;;;8.20;1.33;;;6.70;99.90;;;;;;4194692;28;20862;-77
2023/01/14 04:27:34;;;;;;;3.77;1.03;;;6.80;99.90;;;;;;4194124;28;20502;-76
2023/01/14 04:29:36;;;;;;;8.50;1.63;;;6.70;99.90;;;;;;4193122;28;20532;-77
2023/01/14 04:31:38;;;;;;;7.40;1.17;;;6.80;99.90;;;;;;4197400;28;20490;-77
2023/01/14 04:33:40;;;;;;;5.37;1.53;;;6.80;99.90;;;;;;4196758;28;20505;-78
2023/01/14 04:35:42;;;;;;;4.43;1.30;;;6.80;99.90;;;;;;4197457;28;20455;-76
2023/01/14 04:37:45;;;;;;;11.00;1.40;;;6.80;99.90;;;;;;4209670;28;21146;-77
2023/01/14 04:39:47;;;;;;;4.23;0.90;;;6.80;99.90;;;;;;4196890;28;20458;-77
2023/01/14 04:44:08;;;;;;;6.77;1.10;;;6.80;99.90;;;;;;4193753;28;20462;-77
2023/01/14 04:46:10;;;;;;;6.77;1.77;;;6.80;99.90;;;;;;4197552;28;20452;-76
2023/01/14 04:48:12;;;;;;;5.13;1.40;;;6.80;99.90;;;;;;4210227;28;21214;-77
2023/01/14 04:50:33;;;;;;;5.37;1.10;;;6.80;99.90;;;;;;4196374;28;20846;-76
2023/01/14 04:52:35;;;;;;;9.73;1.33;;;6.80;99.90;;;;;;4191107;28;20473;-76
2023/01/14 04:54:39;;;;;;;5.47;1.10;;;6.80;99.90;;;;;;4196483;28;20450;-76
2023/01/14 04:56:40;;;;;;;5.57;1.43;;;6.80;99.90;;;;;;4198416;28;20543;-76
2023/01/14 04:58:46;;;;;;;7.10;1.10;;;6.70;99.90;;;;;;4198010;28;20510;-76
2023/01/14 05:00:50;;;;;;;6.57;0.90;;;6.80;99.90;;;;;;4197580;28;20481;-76
2023/01/14 05:02:52;;;;;;;4.70;0.93;;;6.80;99.90;;;;;;4196885;28;20480;-76
2023/01/14 05:04:54;;;;;;;8.47;1.20;;;6.80;99.90;;;;;;4197441;28;20480;-77
2023/01/14 05:06:56;;;;;;;5.37;1.27;;;6.80;99.90;;;;;;4198077;28;20504;-76
2023/01/14 05:08:58;;;;;;;4.50;1.23;;;6.80;99.90;;;;;;4194999;28;20451;-77
2023/01/14 05:11:01;;;;;;;7.73;1.40;;;6.80;99.90;;;;;;4197185;28;20534;-75
2023/01/14 05:13:07;;;;;;;6.17;1.00;;;6.80;99.90;;;;;;4197627;28;20506;-76
2023/01/14 05:15:10;;;;;;;4.70;1.10;;;6.80;99.90;;;;;;4196373;28;20455;-76
2023/01/14 05:17:12;;;;;;;6.93;1.57;;;6.80;99.90;;;;;;4196347;28;20463;-76
2023/01/14 05:19:14;;;;;;;4.50;1.23;;;6.80;99.90;;;;;;4193673;28;20518;-76
2023/01/14 05:21:17;;;;;;;8.60;1.20;;;6.80;99.90;;;;;;4196583;28;20530;-76
2023/01/14 05:23:19;;;;;;;7.70;1.10;;;6.80;99.90;;;;;;4195906;28;20474;-76
2023/01/14 05:25:21;;;;;;;5.97;1.40;;;6.70;99.90;;;;;;4195422;28;20498;-76
2023/01/14 05:27:24;;;;;;;8.50;1.30;;;6.80;99.90;;;;;;4196143;28;20467;-75
2023/01/14 05:29:26;;;;;;;3.23;0.87;;;6.70;99.90;;;;;;4195422;28;20949;-76
2023/01/14 05:31:28;;;;;;;9.37;1.00;;;6.70;99.90;;;;;;4195625;28;21038;-76
2023/01/14 05:33:31;;;;;;;5.03;1.13;;;6.70;99.90;;;;;;4196727;28;20961;-76
2023/01/14 05:35:33;;;;;;;7.97;1.50;;;6.70;99.90;;;;;;4192858;28;20459;-76
2023/01/14 05:37:35;;;;;;;6.23;1.00;;;6.70;99.90;;;;;;4194937;28;20557;-77
2023/01/14 05:39:37;;;;;;;6.73;1.20;;;6.70;99.90;;;;;;4194414;28;20574;-77
2023/01/14 05:45:37;;;;;;;6.73;1.37;;;6.70;99.90;;;;;;4195828;28;20497;-76
2023/01/14 05:46:20;;;;;;;7.20;1.63;;;6.70;99.90;;;;;;4195700;28;21024;-77
2023/01/14 05:48:24;;;;;;;6.27;1.17;;;6.60;99.90;;;;;;4184272;28;20493;-76
2023/01/14 05:50:26;;;;;;;5.57;1.07;;;6.60;99.90;;;;;;4195933;28;20262;-76
2023/01/14 05:52:28;;;;;;;6.30;1.20;;;6.60;99.90;;;;;;4195123;28;20502;-76
2023/01/14 05:54:29;;;;;;;4.17;1.20;;;6.50;99.90;;;;;;4197111;28;20475;-76
2023/01/14 05:56:31;;;;;;;5.80;1.50;;;6.50;99.90;;;;;;4195374;28;20486;-76
2023/01/14 05:58:33;;;;;;;7.20;1.30;;;6.40;99.90;;;;;;4195613;28;20967;-77
2023/01/14 06:07:35;;;;;;;5.37;1.00;;;6.30;99.90;;;;;;4192356;28;20815;-76
2023/01/14 06:09:37;;;;;;;14.00;1.50;;;6.30;99.90;;;;;;4195162;28;20443;-77
2023/01/14 06:11:41;;;;;;;6.03;1.10;;;6.20;99.90;;;;;;4194898;28;20483;-77
2023/01/14 06:13:42;;;;;;;3.57;1.07;;;6.10;99.90;;;;;;4193683;28;20832;-77
2023/01/14 06:15:46;;;;;;;7.67;1.43;;;6.10;99.90;;;;;;4193804;28;21018;-77
2023/01/14 06:17:57;;;;;;;9.00;1.30;;;6.10;99.90;;;;;;4198313;28;20548;-76
2023/01/14 06:19:59;;;;;;;6.40;1.30;;;6.00;99.90;;;;;;4196008;28;21190;-77
2023/01/14 06:22:01;;;;;;;4.90;1.40;;;6.00;99.90;;;;;;4211682;28;20556;-77
2023/01/14 06:24:04;;;;;;;6.43;1.50;;;6.00;99.90;;;;;;4195682;28;20816;-76
2023/01/14 06:26:09;;;;;;;6.83;1.50;;;6.00;99.90;;;;;;4195790;28;20540;-77
2023/01/14 06:28:11;;;;;;;4.87;1.17;;;6.00;99.90;;;;;;4194006;28;20497;-77
2023/01/14 06:30:14;;;;;;;5.90;1.37;;;5.90;99.90;;;;;;4192383;28;20926;-77
2023/01/14 06:32:18;;;;;;;4.67;1.20;;;5.90;99.90;;;;;;4210718;28;20560;-77
2023/01/14 06:34:21;;;;;;;5.23;1.33;;;5.90;99.90;;;;;;4192934;28;20457;-77
2023/01/14 06:36:24;;;;;;;9.70;1.67;;;5.90;99.90;;;;;;4192596;28;20471;-77
2023/01/14 06:38:26;;;;;;;4.70;1.37;;;5.90;99.90;;;;;;4191991;28;20557;-77
2023/01/14 06:40:28;;;;;;;5.10;1.50;;;5.90;99.90;;;;;;4194576;28;20497;-77
2023/01/14 06:42:30;;;;;;;7.17;1.50;;;5.80;99.90;;;;;;4195380;28;20854;-77
2023/01/14 06:44:32;;;;;;;7.40;1.20;;;5.80;99.90;;;;;;4196858;28;20465;-77
2023/01/14 06:46:34;;;;;;;8.93;1.63;;;5.70;99.90;;;;;;4207543;28;21199;-77
2023/01/14 06:48:37;;;;;;;6.73;1.20;;;5.70;99.90;;;;;;4190150;28;20456;-77
2023/01/14 06:50:39;;;;;;;12.13;1.40;;;5.70;99.90;;;;;;4193312;28;20573;-77
2023/01/14 06:52:41;;;;;;;5.97;1.10;;;5.70;99.90;;;;;;4195604;28;20500;-77
2023/01/14 06:54:43;;;;;;;5.63;1.20;;;5.60;99.90;;;;;;4194532;28;20488;-76
2023/01/14 06:56:44;;;;;;;6.60;0.90;;;5.60;99.90;;;;;;4196884;28;20489;-77
2023/01/14 06:58:48;;;;;;;7.50;1.20;;;5.60;99.90;;;;;;4194087;28;20607;-77
2023/01/14 07:00:54;;;;;;;10.30;1.57;;;5.50;99.90;;;;;;4194943;28;20545;-76
2023/01/14 07:02:56;;;;;;;7.33;1.17;;;5.60;99.90;;;;;;4194845;28;20473;-77
2023/01/14 07:05:00;;;;;;;8.13;1.40;;;5.50;99.90;;;;;;4194175;28;20947;-77
2023/01/14 07:07:01;;;;;;;4.03;1.23;;;5.50;99.90;;;;;;4196109;28;20545;-76
2023/01/14 07:09:04;;;;;;;10.07;1.13;;;5.50;99.90;;;;;;4193190;28;20452;-76
2023/01/14 07:11:06;;;;;;;3.70;1.40;;;5.50;99.90;;;;;;4194709;28;20453;-76
2023/01/14 07:13:08;;;;;;;5.40;1.77;;;5.40;99.90;;;;;;4194069;28;20457;-76
2023/01/14 07:15:10;;;;;;;9.60;1.67;;;5.40;99.90;;;;;;4194791;28;20991;-76
2023/01/14 07:17:12;;;;;;;10.10;1.60;;;5.40;99.90;;;;;;4192303;28;20524;-76
2023/01/14 07:19:14;;;;;;;6.93;1.40;;;5.40;99.90;;;;;;4193807;28;21005;-75
2023/01/14 07:21:17;;;;;;;6.10;1.43;;;5.40;99.90;;;;;;4194948;28;20510;-77
2023/01/14 07:23:19;;;;;;;7.07;1.77;;;5.30;99.90;;;;;;4195303;28;20998;-76
2023/01/14 07:25:21;;;;;;;8.50;1.67;;;5.40;99.90;;;;;;4180770;28;20454;-76
2023/01/14 07:27:23;;;;;;;8.23;1.30;;;5.30;99.90;;;;;;4196561;28;20463;-76
2023/01/14 07:29:25;;;;;;;8.07;1.47;;;5.30;99.90;;;;;;4197698;28;20450;-75
2023/01/14 07:31:27;;;;;;;9.03;1.50;;;5.30;99.90;;;;;;4193467;28;20481;-76
2023/01/14 07:33:29;;;;;;;9.50;1.27;;;5.30;99.90;;;;;;4193770;28;20453;-76
2023/01/14 07:35:31;;;;;;;5.47;1.20;;;5.30;99.90;;;;;;4203077;28;20500;-76
2023/01/14 07:37:35;;;;;;;8.03;1.37;;;5.30;99.90;;;;;;4191744;28;20478;-76
2023/01/14 07:39:36;;;;;;;8.97;1.73;;;5.30;99.90;;;;;;4190063;28;21088;-76
2023/01/14 07:41:39;;;;;;;8.43;1.30;;;5.30;99.90;;;;;;4191969;28;20480;-76
2023/01/14 07:43:41;;;;;;;4.20;1.03;;;5.30;99.90;;;;;;4194798;28;20472;-76
2023/01/14 07:45:43;;;;;;;10.43;1.80;;;5.30;99.90;;;;;;4195068;28;20453;-76
2023/01/14 07:47:45;;;;;;;7.47;1.83;;;5.30;99.90;;;;;;4187198;28;20457;-76
2023/01/14 07:49:47;;;;;;;6.67;1.57;;;5.30;99.90;;;;;;4185369;28;20486;-77
2023/01/14 07:51:49;;;;;;;10.03;1.90;;;5.30;99.90;;;;;;4191831;28;20546;-77
2023/01/14 07:53:53;;;;;;;5.07;1.23;;;5.30;99.90;;;;;;4191944;28;20493;-77
2023/01/14 07:55:55;;;;;;;4.83;1.27;;;5.30;99.90;;;;;;4193171;28;20503;-77
2023/01/14 07:57:58;;;;;;;9.60;2.17;;;5.30;99.90;;;;;;4194100;28;20935;-77
2023/01/14 08:00:00;;;;;;;14.53;2.07;;;5.30;99.90;;;;;;4192612;28;20599;-77
2023/01/14 08:02:02;;;;;;;7.97;1.47;;;5.30;99.90;;;;;;4192770;28;20517;-76
2023/01/14 08:04:10;;;;;;;10.97;1.80;;;5.30;99.90;;;;;;4208383;28;20455;-76
2023/01/14 08:06:12;;;;;;;5.07;1.43;;;5.30;99.90;;;;;;4192072;28;21170;-77
2023/01/14 08:08:14;;;;;;;4.93;1.30;;;5.30;99.90;;;;;;4192016;28;20496;-77
2023/01/14 08:10:18;;;;;;;11.33;1.90;;;5.30;99.90;;;;;;4189985;28;20459;-77
2023/01/14 08:12:20;;;;;;;6.00;1.10;;;5.30;99.90;;;;;;4192441;28;20510;-77
2023/01/14 08:14:22;;;;;;;8.90;1.50;;;5.30;99.90;;;;;;4192620;28;20441;-77
2023/01/14 08:16:24;;;;;;;8.50;1.37;;;5.30;99.90;;;;;;4208201;28;20476;-76
2023/01/14 08:18:26;;;;;;;10.20;1.50;;;5.30;99.90;;;;;;4191697;28;20470;-77
2023/01/14 08:20:30;;;;;;;5.80;1.50;;;5.30;99.90;;;;;;4192231;28;20494;-77
2023/01/14 08:22:32;;;;;;;5.53;1.37;;;5.40;99.90;;;;;;4192628;28;20545;-77
2023/01/14 08:24:34;;;;;;;8.67;1.50;;;5.40;99.90;;;;;;4194550;28;20831;-77
2023/01/14 08:26:38;;;;;;;4.47;1.17;;;5.40;99.90;;;;;;4192290;28;20472;-77
2023/01/14 08:28:41;;;;;;;6.73;1.43;;;5.50;99.90;;;;;;4191570;28;20454;-77
2023/01/14 08:30:43;;;;;;;11.13;1.80;;;5.50;99.90;;;;;;4189916;28;20497;-77
2023/01/14 08:32:45;;;;;;;6.77;1.60;;;5.60;99.90;;;;;;4189701;28;20494;-77
2023/01/14 08:34:47;;;;;;;8.03;1.57;;;5.60;99.90;;;;;;4190576;28;20462;-77
2023/01/14 08:36:49;;;;;;;8.10;1.50;;;5.70;99.90;;;;;;4190374;28;20447;-77
2023/01/14 08:38:53;;;;;;;9.33;1.53;;;5.70;99.90;;;;;;4191799;28;20578;-77
2023/01/14 08:40:55;;;;;;;10.10;1.40;;;5.70;99.90;;;;;;4191231;28;20454;-77
2023/01/14 08:42:59;;;;;;;8.17;1.63;;;5.70;99.90;;;;;;4204473;28;20474;-77
2023/01/14 08:45:01;;;;;;;10.00;1.77;;;5.70;99.90;;;;;;4191423;28;20450;-77
2023/01/14 08:47:02;;;;;;;6.00;1.43;;;5.70;99.90;;;;;;4205286;28;20472;-77
2023/01/14 08:49:04;;;;;;;9.87;1.50;;;5.80;99.90;;;;;;4186274;28;20449;-77
2023/01/14 08:51:08;;;;;;;6.17;1.80;;;5.70;99.90;;;;;;4193220;28;20492;-77
2023/01/14 08:53:10;;;;;;;7.70;2.00;;;5.80;99.90;;;;;;4192186;28;20560;-77
2023/01/14 08:55:12;;;;;;;14.47;2.47;;;5.80;99.90;;;;;;4192779;28;20516;-77
2023/01/14 08:57:14;;;;;;;15.80;1.70;;;5.80;99.90;;;;;;4191766;28;21890;-77
2023/01/14 08:59:17;;;;;;;6.30;1.40;;;5.90;99.90;;;;;;4192879;28;21065;-77
2023/01/14 09:01:19;;;;;;;9.67;1.60;;;5.80;99.90;;;;;;4191884;28;20951;-76
2023/01/14 09:03:21;;;;;;;11.67;1.50;;;5.90;99.90;;;;;;4190647;28;20469;-77
2023/01/14 09:05:23;;;;;;;10.57;1.90;;;6.00;99.90;;;;;;4207046;28;20871;-77
2023/01/14 09:19:07;;;;;;;10.37;1.80;;;6.20;99.90;;;;;;4194584;28;20954;-77
2023/01/14 09:21:09;;;;;;;13.60;2.87;;;6.20;99.90;;;;;;4194737;28;20537;-77
2023/01/14 09:23:14;;;;;;;12.33;1.63;;;6.30;99.90;;;;;;4196200;28;20960;-76
2023/01/14 09:25:16;;;;;;;9.63;1.50;;;6.30;99.90;;;;;;4196526;28;20447;-76
2023/01/14 09:27:18;;;;;;;8.97;2.00;;;6.40;99.90;;;;;;4195595;28;20569;-76
2023/01/14 09:29:20;;;;;;;10.60;1.70;;;6.40;99.90;;;;;;4194717;28;21118;-76
2023/01/14 09:31:24;;;;;;;8.83;2.13;;;6.50;99.90;;;;;;4195927;28;20937;-76
2023/01/14 09:33:28;;;;;;;9.63;2.40;;;6.50;99.90;;;;;;4195806;28;20955;-76
2023/01/14 09:35:30;;;;;;;9.87;1.83;;;6.60;99.90;;;;;;4193128;28;20617;-77
2023/01/14 09:37:35;;;;;;;6.67;1.70;;;6.60;99.90;;;;;;4209586;28;20462;-77
2023/01/14 09:39:37;;;;;;;11.40;1.97;;;6.60;99.90;;;;;;4193139;28;20507;-77
2023/01/14 09:41:52;;;;;;;13.23;2.20;;;6.60;99.90;;;;;;4193141;28;20564;-77
2023/01/14 09:43:54;;;;;;;10.87;1.80;;;6.70;99.90;;;;;;4192989;28;20463;-78
2023/01/14 09:45:59;;;;;;;10.37;1.80;;;6.70;99.90;;;;;;4194602;28;20952;-77
2023/01/14 09:48:06;;;;;;;17.77;2.83;;;6.80;99.90;;;;;;4186117;28;20456;-76
2023/01/14 09:50:14;;;;;;;13.13;2.20;;;6.80;99.90;;;;;;4191436;28;20994;-77
2023/01/14 09:52:47;;;;;;;9.07;1.50;;;6.90;99.90;;;;;;4192331;28;20487;-77
2023/01/14 09:54:59;;;;;;;7.83;2.00;;;6.90;99.90;;;;;;4193673;28;20971;-77
2023/01/14 09:57:09;;;;;;;8.60;2.17;;;7.00;99.90;;;;;;4192289;28;20459;-77
2023/01/14 09:59:22;;;;;;;11.63;2.00;;;7.00;99.90;;;;;;4193647;28;20452;-77
2023/01/14 10:01:31;;;;;;;11.03;1.70;;;7.10;99.90;;;;;;4193894;28;20548;-77
2023/01/14 10:03:41;;;;;;;8.07;1.77;;;7.20;99.90;;;;;;4195943;28;21005;-78
2023/01/14 10:05:51;;;;;;;10.00;1.73;;;7.20;99.90;;;;;;4196681;28;20509;-78
2023/01/14 10:07:53;;;;;;;10.00;1.37;;;7.30;99.90;;;;;;4194688;28;20521;-80
2023/01/14 10:09:58;;;;;;;8.30;1.70;;;7.40;99.90;;;;;;4193287;28;20440;-77
2023/01/14 10:12:02;;;;;;;10.70;2.27;;;7.40;99.90;;;;;;4194899;28;20476;-77
2023/01/14 10:14:08;;;;;;;10.97;2.83;;;7.50;99.90;;;;;;4195689;28;20451;-79
2023/01/14 10:16:16;;;;;;;14.47;1.90;;;7.50;99.90;;;;;;4193887;28;20986;-80
2023/01/14 10:18:24;;;;;;;13.83;2.13;;;7.60;99.90;;;;;;4194491;28;20463;-77
2023/01/14 10:20:33;;;;;;;9.53;1.77;;;7.60;99.90;;;;;;4196761;28;20479;-79
2023/01/14 10:22:40;;;;;;;10.63;1.43;;;7.60;99.90;;;;;;4193962;28;21039;-75
2023/01/14 10:24:43;;;;;;;11.97;2.00;;;7.70;99.90;;;;;;4187468;28;20460;-76
2023/01/14 10:26:49;;;;;;;13.13;2.53;;;7.70;99.90;;;;;;4193327;28;20468;-72
2023/01/14 10:28:53;;;;;;;14.27;3.03;;;7.80;99.90;;;;;;4208873;28;20459;-75
2023/01/14 10:30:58;;;;;;;11.90;2.30;;;7.80;99.90;;;;;;4193751;28;20495;-75
2023/01/14 10:33:05;;;;;;;9.77;1.87;;;7.80;99.90;;;;;;4194549;28;20476;-77
2023/01/14 10:35:12;;;;;;;8.23;2.10;;;7.90;99.90;;;;;;4191027;28;20475;-76
2023/01/14 10:37:15;;;;;;;6.40;1.77;;;7.90;99.90;;;;;;4193095;28;20517;-75
2023/01/14 10:39:17;;;;;;;9.27;1.77;;;8.00;99.90;;;;;;4193757;28;20924;-75
2023/01/14 10:41:48;;;;;;;9.50;1.63;;;8.00;99.90;;;;;;4195327;28;20484;-77
2023/01/14 10:43:45;;;;;;;6.67;2.03;;;8.00;99.90;;;;;;4194526;28;20842;-76
2023/01/14 10:45:47;;;;;;;6.67;1.70;;;8.10;99.90;;;;;;4191584;28;20455;-78
2023/01/14 10:47:55;;;;;;;5.53;1.73;;;8.10;99.90;;;;;;4188088;28;20233;-75
2023/01/14 10:50:01;;;;;;;12.20;2.03;;;8.10;99.90;;;;;;4193412;28;20522;-75
2023/01/14 10:52:28;;;;;;;9.40;1.60;;;8.20;99.90;;;;;;4209098;28;20471;-75
2023/01/14 10:54:34;;;;;;;9.83;2.67;;;8.20;99.90;;;;;;4194125;28;20483;-75
2023/01/14 10:56:39;;;;;;;8.50;2.30;;;8.20;99.90;;;;;;4207856;28;20262;-76
2023/01/14 10:58:45;;;;;;;6.30;1.50;;;8.30;99.90;;;;;;4191301;28;20513;-77
2023/01/14 11:00:50;;;;;;;10.67;1.70;;;8.30;99.90;;;;;;4193165;28;20472;-78
2023/01/14 11:02:52;;;;;;;11.67;2.23;;;8.30;99.90;;;;;;4207246;28;20463;-78
2023/01/14 11:05:00;;;;;;;10.97;1.80;;;8.30;99.90;;;;;;4192787;28;20297;-75
2023/01/14 11:07:09;;;;;;;5.73;1.60;;;8.40;99.90;;;;;;4194470;28;20206;-77
2023/01/14 11:09:19;;;;;;;7.63;1.63;;;8.40;99.90;;;;;;4193663;28;20452;-76
2023/01/14 11:11:26;;;;;;;12.60;1.83;;;8.40;99.90;;;;;;4192153;28;20197;-76
2023/01/14 11:13:31;;;;;;;10.27;1.93;;;8.40;99.90;;;;;;4193059;28;20459;-77
2023/01/14 11:15:38;;;;;;;12.17;2.13;;;8.50;99.90;;;;;;4195048;28;20668;-77
2023/01/14 11:17:40;;;;;;;9.87;2.03;;;8.50;99.90;;;;;;4208314;28;20210;-76
2023/01/14 11:19:41;;;;;;;8.63;1.83;;;8.50;99.90;;;;;;4192417;28;20245;-76
2023/01/14 11:21:45;;;;;;;9.53;1.97;;;8.50;99.90;;;;;;4192053;28;20245;-76
2023/01/14 11:24:02;;;;;;;8.70;1.57;;;8.50;99.90;;;;;;4193245;28;20296;-74
2023/01/14 11:26:08;;;;;;;8.67;1.80;;;8.50;99.90;;;;;;4191674;28;20198;-79
2023/01/14 11:28:15;;;;;;;6.17;1.40;;;8.50;99.90;;;;;;4194147;28;20775;-81